createdAt,value
2019-02-22T00:00:53.594Z,102008.22
2019-02-22T00:03:22.193Z,102014.44
2019-02-22T00:05:50.662Z,102017.11
2019-02-22T00:08:19.414Z,102024.67
2019-02-22T00:10:48.045Z,102026.01
2019-02-22T00:13:16.514Z,102022.41
2019-02-22T00:15:45.043Z,102021.06
2019-02-22T00:18:13.665Z,102025.14
2019-02-22T00:20:42.137Z,102026.01
2019-02-22T00:23:10.647Z,102032.79
2019-02-22T00:25:39.177Z,102035.37
2019-02-22T00:28:07.784Z,102037.11
2019-02-22T00:30:36.353Z,102037.11
2019-02-22T00:33:05.015Z,102030.89
2019-02-22T00:35:33.528Z,102041.13
2019-02-22T00:38:02.053Z,102045.60
2019-02-22T00:40:30.583Z,102046.53
2019-02-22T00:42:59.206Z,102042.15
2019-02-22T00:45:27.790Z,102040.31
2019-02-22T00:47:56.244Z,102042.98
2019-02-22T00:50:24.727Z,102045.29
2019-02-22T00:52:53.275Z,102042.20
2019-02-22T00:55:21.716Z,102044.41
2019-02-22T00:57:50.218Z,102053.31
2019-02-22T01:00:18.752Z,102051.97
2019-02-22T01:02:47.284Z,102054.24
2019-02-22T01:05:15.800Z,102054.70
2019-02-22T01:07:44.404Z,102050.32
2019-02-22T01:10:13.113Z,102059.28
2019-02-22T01:12:41.593Z,102061.89
2019-02-22T01:15:10.184Z,102060.06
2019-02-22T01:17:38.681Z,102066.28
2019-02-22T01:20:07.253Z,102069.42
2019-02-22T01:22:35.869Z,102069.83
2019-02-22T01:25:05.109Z,102073.38
2019-02-22T01:27:33.632Z,102080.43
2019-02-22T01:30:02.091Z,102075.08
2019-02-22T01:32:30.591Z,102075.48
2019-02-22T01:34:59.157Z,102079.97
2019-02-22T01:37:27.691Z,102087.12
2019-02-22T01:39:56.214Z,102081.77
2019-02-22T01:42:24.771Z,102081.39
2019-02-22T01:44:53.485Z,102083.20
2019-02-22T01:47:22.417Z,102083.61
2019-02-22T01:49:50.879Z,102083.11
2019-02-22T01:52:19.338Z,102089.79
2019-02-22T01:54:48.159Z,102083.98
2019-02-22T01:57:16.791Z,102096.48
2019-02-22T01:59:45.504Z,102092.09
2019-02-22T02:02:14.035Z,102093.89
2019-02-22T02:04:42.568Z,102100.11
2019-02-22T02:07:11.099Z,102102.33
2019-02-22T02:09:39.716Z,102105.78
2019-02-22T02:12:08.524Z,102109.85
2019-02-22T02:14:37.200Z,102116.95
2019-02-22T02:17:05.813Z,102107.59
2019-02-22T02:19:34.366Z,102115.55
2019-02-22T02:22:02.847Z,102115.14
2019-02-22T02:24:31.395Z,102113.34
2019-02-22T02:27:00.017Z,102116.95
2019-02-22T02:29:28.625Z,102118.75
2019-02-22T02:31:57.192Z,102116.02
2019-02-22T02:34:25.839Z,102117.81
2019-02-22T02:36:54.310Z,102119.16
2019-02-22T02:39:22.826Z,102115.70
2019-02-22T02:41:51.334Z,102116.54
2019-02-22T02:44:19.866Z,102115.61
2019-02-22T02:46:48.454Z,102115.14
2019-02-22T02:49:17.055Z,102115.61
2019-02-22T02:51:45.536Z,102117.81
2019-02-22T02:54:14.019Z,102114.67
2019-02-22T02:56:42.504Z,102114.67
2019-02-22T02:59:11.009Z,102109.33
2019-02-22T03:01:39.541Z,102119.62
2019-02-22T03:04:08.152Z,102119.21
2019-02-22T03:06:38.341Z,102119.62
2019-02-22T03:09:09.000Z,102120.49
2019-02-22T03:11:37.527Z,102116.02
2019-02-22T03:14:06.017Z,102114.27
2019-02-22T03:16:34.764Z,102121.36
2019-02-22T03:19:03.338Z,102115.05
2019-02-22T03:21:31.844Z,102112.47
2019-02-22T03:24:00.476Z,102123.62
2019-02-22T03:26:29.087Z,102123.22
2019-02-22T03:28:57.563Z,102133.92
2019-02-22T03:31:26.063Z,102141.95
2019-02-22T03:33:54.530Z,102148.26
2019-02-22T03:36:23.013Z,102152.27
2019-02-22T03:38:51.699Z,102150.06
2019-02-22T03:41:31.893Z,102159.33
2019-02-22T03:43:50.548Z,102166.98
2019-02-22T03:46:19.489Z,102166.11
2019-02-22T03:48:48.127Z,102179.02
2019-02-22T03:51:16.860Z,102186.17
2019-02-22T03:53:47.085Z,102187.50
2019-02-22T03:56:15.824Z,102182.30
2019-02-22T03:58:44.417Z,102203.46
2019-02-22T04:01:12.960Z,102191.92
2019-02-22T04:03:41.780Z,102201.66
2019-02-22T04:06:10.267Z,102205.20
2019-02-22T04:08:38.722Z,102211.84
2019-02-22T04:11:07.238Z,102204.28
2019-02-22T04:13:35.750Z,102205.53
2019-02-22T04:16:04.367Z,102209.54
2019-02-22T04:18:33.124Z,102214.84
2019-02-22T04:21:01.924Z,102214.28
2019-02-22T04:23:30.365Z,102213.41
2019-02-22T04:25:58.916Z,102211.61
2019-02-22T04:28:27.387Z,102210.27
2019-02-22T04:30:55.883Z,102205.84
2019-02-22T04:33:24.380Z,102217.89
2019-02-22T04:35:53.022Z,102214.84
2019-02-22T04:38:21.712Z,102223.23
2019-02-22T04:40:50.276Z,102221.58
2019-02-22T04:43:18.732Z,102228.21
2019-02-22T04:45:47.237Z,102221.11
2019-02-22T04:48:15.986Z,102222.05
2019-02-22T04:50:44.522Z,102230.48
2019-02-22T04:53:12.985Z,102228.21
2019-02-22T04:55:41.666Z,102229.92
2019-02-22T04:58:10.122Z,102221.52
2019-02-22T05:00:38.611Z,102224.58
2019-02-22T05:03:07.344Z,102225.53
2019-02-22T05:05:35.803Z,102228.35
2019-02-22T05:08:04.481Z,102227.95
2019-02-22T05:10:32.961Z,102237.30
2019-02-22T05:13:01.440Z,102232.05
2019-02-22T05:15:30.277Z,102238.23
2019-02-22T05:17:58.744Z,102245.42
2019-02-22T05:20:27.259Z,102244.08
2019-02-22T05:23:03.968Z,102245.42
2019-02-22T05:25:25.955Z,102247.22
2019-02-22T05:27:54.440Z,102244.55
2019-02-22T05:30:22.959Z,102247.22
2019-02-22T05:32:51.698Z,102250.82
2019-02-22T05:35:20.159Z,102250.82
2019-02-22T05:37:48.637Z,102257.97
2019-02-22T05:40:17.099Z,102257.13
2019-02-22T05:42:45.596Z,102260.18
2019-02-22T05:45:14.085Z,102259.25
2019-02-22T05:47:42.537Z,102258.84
2019-02-22T05:50:11.153Z,102264.60
2019-02-22T05:52:39.930Z,102257.91
2019-02-22T05:55:08.562Z,102261.52
2019-02-22T05:57:37.092Z,102265.99
2019-02-22T06:00:07.094Z,102271.89
2019-02-22T06:02:35.629Z,102278.58
2019-02-22T06:05:04.698Z,102284.39
2019-02-22T06:07:33.252Z,102288.41
2019-02-22T06:10:01.738Z,102296.42
2019-02-22T06:12:34.468Z,102296.84
2019-02-22T06:15:00.669Z,102307.53
2019-02-22T06:17:29.140Z,102307.53
2019-02-22T06:19:57.595Z,102301.27
2019-02-22T06:22:29.711Z,102304.77
2019-02-22T06:24:56.312Z,102309.66
2019-02-22T06:27:24.782Z,102315.01
2019-02-22T06:29:53.814Z,102318.09
2019-02-22T06:32:22.284Z,102330.59
2019-02-22T06:34:50.747Z,102330.12
2019-02-22T06:37:19.314Z,102330.05
2019-02-22T06:39:48.150Z,102331.84
2019-02-22T06:42:16.816Z,102325.57
2019-02-22T06:44:45.373Z,102328.19
2019-02-22T06:47:13.855Z,102325.52
2019-02-22T06:49:44.405Z,102333.05
2019-02-22T06:52:12.617Z,102331.70
2019-02-22T06:54:41.966Z,102343.75
2019-02-22T06:57:10.497Z,102350.44
2019-02-22T06:59:38.948Z,102350.05
2019-02-22T07:02:07.510Z,102347.38
2019-02-22T07:04:35.999Z,102351.39
2019-02-22T07:07:04.554Z,102347.38
2019-02-22T07:09:33.078Z,102356.74
2019-02-22T07:12:05.936Z,102360.75
2019-02-22T07:14:34.683Z,102362.47
2019-02-22T07:17:03.304Z,102360.20
2019-02-22T07:19:31.763Z,102367.30
2019-02-22T07:22:00.267Z,102365.42
2019-02-22T07:24:28.807Z,102371.64
2019-02-22T07:26:57.289Z,102374.64
2019-02-22T07:29:25.743Z,102375.02
2019-02-22T07:32:02.643Z,102374.51
2019-02-22T07:34:24.425Z,102378.84
2019-02-22T07:36:52.892Z,102384.52
2019-02-22T07:39:27.720Z,102389.28
2019-02-22T07:41:51.764Z,102388.64
2019-02-22T07:44:20.222Z,102396.94
2019-02-22T07:46:48.968Z,102396.39
2019-02-22T07:49:25.496Z,102395.70
2019-02-22T07:51:54.125Z,102401.70
2019-02-22T07:54:22.588Z,102406.41
2019-02-22T07:56:51.147Z,102414.53
2019-02-22T07:59:19.677Z,102423.95
2019-02-22T08:01:48.477Z,102427.59
2019-02-22T08:04:16.941Z,102423.20
2019-02-22T08:06:45.496Z,102437.97
2019-02-22T08:09:13.958Z,102434.08
2019-02-22T08:11:42.716Z,102444.41
2019-02-22T08:14:11.169Z,102444.44
2019-02-22T08:16:39.704Z,102457.22
2019-02-22T08:19:08.211Z,102458.98
2019-02-22T08:21:36.663Z,102456.63
2019-02-22T08:24:05.303Z,102462.88
2019-02-22T08:26:33.781Z,102462.06
2019-02-22T08:29:02.314Z,102470.99
2019-02-22T08:31:31.158Z,102477.08
2019-02-22T08:33:59.630Z,102480.13
2019-02-22T08:36:28.086Z,102488.69
2019-02-22T08:38:56.590Z,102487.66
2019-02-22T08:41:25.176Z,102497.58
2019-02-22T08:43:53.660Z,102500.67
2019-02-22T08:46:22.140Z,102499.17
2019-02-22T08:48:50.697Z,102498.61
2019-02-22T08:51:19.242Z,102503.83
2019-02-22T08:53:47.815Z,102501.92
2019-02-22T08:56:16.540Z,102507.13
2019-02-22T08:58:45.111Z,102513.53
2019-02-22T09:01:13.611Z,102506.98
2019-02-22T09:03:50.625Z,102517.46
2019-02-22T09:06:12.343Z,102515.81
2019-02-22T09:08:41.703Z,102522.05
2019-02-22T09:11:10.156Z,102522.09
2019-02-22T09:13:43.550Z,102522.09
2019-02-22T09:16:08.923Z,102523.73
2019-02-22T09:18:37.406Z,102526.70
2019-02-22T09:21:05.907Z,102532.33
2019-02-22T09:23:34.371Z,102528.38
2019-02-22T09:26:02.950Z,102532.35
2019-02-22T09:28:31.429Z,102538.41
2019-02-22T09:30:59.960Z,102540.55
2019-02-22T09:33:28.453Z,102545.89
2019-02-22T09:35:56.947Z,102543.25
2019-02-22T09:38:25.483Z,102544.55
2019-02-22T09:40:53.977Z,102543.05
2019-02-22T09:43:22.623Z,102542.13
2019-02-22T09:45:51.107Z,102544.77
2019-02-22T09:48:19.620Z,102551.25
2019-02-22T09:50:48.075Z,102554.77
2019-02-22T09:53:16.572Z,102549.16
2019-02-22T09:55:45.025Z,102546.04
2019-02-22T09:58:13.613Z,102548.70
2019-02-22T10:00:42.207Z,102544.05
2019-02-22T10:03:10.739Z,102544.21
2019-02-22T10:05:39.197Z,102544.66
2019-02-22T10:08:07.713Z,102542.92
2019-02-22T10:10:36.182Z,102544.45
2019-02-22T10:13:04.778Z,102546.45
2019-02-22T10:15:33.546Z,102550.42
2019-02-22T10:18:02.010Z,102561.92
2019-02-22T10:20:30.770Z,102558.22
2019-02-22T10:22:59.295Z,102556.77
2019-02-22T10:25:27.822Z,102560.37
2019-02-22T10:27:56.341Z,102552.13
2019-02-22T10:30:24.939Z,102563.97
2019-02-22T10:32:53.612Z,102567.98
2019-02-22T10:35:22.319Z,102569.81
2019-02-22T10:37:50.777Z,102568.67
2019-02-22T10:40:19.273Z,102571.08
2019-02-22T10:42:48.094Z,102568.06
2019-02-22T10:45:16.606Z,102573.30
2019-02-22T10:47:45.072Z,102572.13
2019-02-22T10:50:13.528Z,102573.05
2019-02-22T10:52:42.111Z,102563.50
2019-02-22T10:55:12.506Z,102565.83
2019-02-22T10:57:41.058Z,102563.99
2019-02-22T11:00:12.922Z,102556.73
2019-02-22T11:02:41.698Z,102557.59
2019-02-22T11:05:10.405Z,102562.25
2019-02-22T11:07:39.043Z,102556.94
2019-02-22T11:10:10.409Z,102559.19
2019-02-22T11:12:38.931Z,102557.01
2019-02-22T11:15:09.970Z,102556.14
2019-02-22T11:17:38.419Z,102553.62
2019-02-22T11:20:11.706Z,102559.98
2019-02-22T11:22:40.242Z,102556.16
2019-02-22T11:25:13.639Z,102551.13
2019-02-22T11:27:42.209Z,102554.15
2019-02-22T11:30:14.908Z,102565.27
2019-02-22T11:32:43.412Z,102556.98
2019-02-22T11:35:12.028Z,102562.94
2019-02-22T11:37:40.830Z,102565.80
2019-02-22T11:40:10.770Z,102562.98
2019-02-22T11:42:39.206Z,102567.17
2019-02-22T11:45:09.139Z,102562.39
2019-02-22T11:47:37.680Z,102560.55
2019-02-22T11:50:10.993Z,102572.62
2019-02-22T11:52:39.689Z,102574.23
2019-02-22T11:55:09.717Z,102585.66
2019-02-22T11:57:38.433Z,102580.98
2019-02-22T12:00:17.468Z,102587.80
2019-02-22T12:02:47.170Z,102584.60
2019-02-22T12:05:15.732Z,102586.83
2019-02-22T12:07:44.356Z,102586.39
2019-02-22T12:10:13.725Z,102588.25
2019-02-22T12:12:43.046Z,102593.93
2019-02-22T12:15:13.054Z,102596.50
2019-02-22T12:17:41.852Z,102596.28
2019-02-22T12:20:11.151Z,102591.79
2019-02-22T12:22:39.713Z,102593.56
2019-02-22T12:25:10.905Z,102587.44
2019-02-22T12:27:39.507Z,102595.05
2019-02-22T12:30:15.662Z,102592.22
2019-02-22T12:32:44.558Z,102605.63
2019-02-22T12:35:13.273Z,102604.66
2019-02-22T12:37:41.916Z,102600.09
2019-02-22T12:40:11.290Z,102597.86
2019-02-22T12:42:39.842Z,102597.81
2019-02-22T12:45:10.436Z,102605.32
2019-02-22T12:47:39.001Z,102607.60
2019-02-22T12:50:09.943Z,102607.44
2019-02-22T12:52:38.523Z,102614.87
2019-02-22T12:55:11.516Z,102608.45
2019-02-22T12:57:40.307Z,102604.69
2019-02-22T13:00:14.766Z,102609.14
2019-02-22T13:02:42.517Z,102598.69
2019-02-22T13:05:13.962Z,102605.58
2019-02-22T13:07:42.922Z,102608.70
2019-02-22T13:10:11.940Z,102611.30
2019-02-22T13:12:40.651Z,102617.40
2019-02-22T13:15:14.386Z,102610.54
2019-02-22T13:17:41.861Z,102618.33
2019-02-22T13:20:10.784Z,102618.95
2019-02-22T13:22:39.414Z,102619.73
2019-02-22T13:25:11.720Z,102615.36
2019-02-22T13:27:40.285Z,102611.01
2019-02-22T13:30:14.340Z,102620.50
2019-02-22T13:32:42.899Z,102623.44
2019-02-22T13:35:11.641Z,102624.73
2019-02-22T13:37:40.291Z,102621.83
2019-02-22T13:40:14.578Z,102625.98
2019-02-22T13:42:43.230Z,102625.63
2019-02-22T13:45:12.790Z,102631.01
2019-02-22T13:47:41.388Z,102635.61
2019-02-22T13:50:17.101Z,102634.05
2019-02-22T13:52:45.637Z,102636.01
2019-02-22T13:55:14.973Z,102635.62
2019-02-22T13:57:43.698Z,102628.88
2019-02-22T14:00:18.012Z,102635.73
2019-02-22T14:02:46.533Z,102628.47
2019-02-22T14:05:15.246Z,102625.98
2019-02-22T14:07:54.323Z,102628.30
2019-02-22T14:10:23.253Z,102634.27
2019-02-22T14:12:51.723Z,102631.16
2019-02-22T14:15:20.262Z,102635.17
2019-02-22T14:17:49.023Z,102634.77
2019-02-22T14:20:17.736Z,102635.83
2019-02-22T14:22:47.345Z,102635.61
2019-02-22T14:25:15.858Z,102634.19
2019-02-22T14:27:44.487Z,102635.42
2019-02-22T14:30:17.486Z,102628.88
2019-02-22T14:32:46.397Z,102630.52
2019-02-22T14:35:15.008Z,102631.27
2019-02-22T14:37:43.574Z,102627.81
2019-02-22T14:40:13.194Z,102629.81
2019-02-22T14:42:41.759Z,102640.22
2019-02-22T14:45:12.608Z,102635.48
2019-02-22T14:47:41.179Z,102645.02
2019-02-22T14:50:15.092Z,102646.63
2019-02-22T14:52:43.568Z,102638.89
2019-02-22T14:55:12.248Z,102641.28
2019-02-22T14:57:40.800Z,102639.55
2019-02-22T15:00:14.767Z,102644.05
2019-02-22T15:02:43.248Z,102646.01
2019-02-22T15:05:13.549Z,102641.95
2019-02-22T15:07:42.081Z,102654.30
2019-02-22T15:10:11.215Z,102652.17
2019-02-22T15:12:39.766Z,102652.45
2019-02-22T15:15:11.195Z,102658.50
2019-02-22T15:17:41.396Z,102654.59
2019-02-22T15:20:09.996Z,102659.34
2019-02-22T15:22:38.750Z,102660.79
2019-02-22T15:25:10.607Z,102666.23
2019-02-22T15:27:39.288Z,102663.25
2019-02-22T15:30:10.910Z,102667.19
2019-02-22T15:32:39.593Z,102660.08
2019-02-22T15:35:13.400Z,102661.13
2019-02-22T15:37:43.332Z,102661.13
2019-02-22T15:40:13.782Z,102659.31
2019-02-22T15:42:43.088Z,102656.28
2019-02-22T15:45:14.326Z,102652.22
2019-02-22T15:47:42.802Z,102657.46
2019-02-22T15:50:13.640Z,102653.77
2019-02-22T15:52:43.553Z,102658.38
2019-02-22T15:55:14.348Z,102659.81
2019-02-22T15:57:42.359Z,102659.88
2019-02-22T16:00:26.505Z,102654.30
2019-02-22T16:02:54.986Z,102650.59
2019-02-22T16:05:31.145Z,102655.83
2019-02-22T16:07:59.753Z,102663.83
2019-02-22T16:10:28.675Z,102658.61
2019-02-22T16:12:57.278Z,102650.28
2019-02-22T16:15:25.849Z,102667.27
2019-02-22T16:17:54.302Z,102661.27
2019-02-22T16:20:23.263Z,102671.50
2019-02-22T16:22:51.842Z,102689.20
2019-02-22T16:25:20.451Z,102698.14
2019-02-22T16:27:48.941Z,102696.58
2019-02-22T16:30:19.909Z,102703.14
2019-02-22T16:32:48.609Z,102699.13
2019-02-22T16:35:17.150Z,102702.94
2019-02-22T16:37:45.696Z,102699.94
2019-02-22T16:40:14.420Z,102703.72
2019-02-22T16:42:43.204Z,102709.80
2019-02-22T16:45:12.923Z,102713.20
2019-02-22T16:47:41.470Z,102708.45
2019-02-22T16:50:14.273Z,102709.62
2019-02-22T16:52:45.167Z,102711.98
2019-02-22T16:55:16.942Z,102712.55
2019-02-22T16:57:45.667Z,102718.06
2019-02-22T17:00:16.569Z,102720.02
2019-02-22T17:02:45.065Z,102720.73
2019-02-22T17:05:15.691Z,102731.61
2019-02-22T17:07:44.297Z,102741.63
2019-02-22T17:10:13.096Z,102739.49
2019-02-22T17:12:41.677Z,102744.13
2019-02-22T17:15:12.264Z,102741.13
2019-02-22T17:17:40.907Z,102743.11
2019-02-22T17:20:11.433Z,102742.37
2019-02-22T17:22:39.975Z,102746.95
2019-02-22T17:25:11.281Z,102747.48
2019-02-22T17:27:39.849Z,102736.37
2019-02-22T17:30:16.428Z,102736.51
2019-02-22T17:32:44.988Z,102737.91
2019-02-22T17:35:13.587Z,102737.12
2019-02-22T17:37:42.241Z,102738.92
2019-02-22T17:40:16.057Z,102739.42
2019-02-22T17:42:44.540Z,102743.50
2019-02-22T17:45:13.183Z,102751.69
2019-02-22T17:47:41.848Z,102754.00
2019-02-22T17:50:10.789Z,102751.31
2019-02-22T17:52:39.347Z,102761.31
2019-02-22T17:55:09.569Z,102768.07
2019-02-22T17:57:38.585Z,102769.96
2019-02-22T18:00:11.970Z,102768.76
2019-02-22T18:02:40.472Z,102763.16
2019-02-22T18:05:09.080Z,102771.72
2019-02-22T18:07:37.938Z,102768.38
2019-02-22T18:10:11.032Z,102768.93
2019-02-22T18:12:39.530Z,102774.02
2019-02-22T18:15:10.633Z,102768.33
2019-02-22T18:17:39.781Z,102788.11
2019-02-22T18:20:09.159Z,102779.82
2019-02-22T18:22:37.704Z,102772.78
2019-02-22T18:25:08.641Z,102766.69
2019-02-22T18:27:37.251Z,102761.92
2019-02-22T18:30:11.623Z,102762.93
2019-02-22T18:32:40.162Z,102757.83
2019-02-22T18:35:09.059Z,102767.52
2019-02-22T18:37:37.702Z,102764.60
2019-02-22T18:40:09.335Z,102756.03
2019-02-22T18:42:37.963Z,102753.66
2019-02-22T18:45:08.200Z,102753.67
2019-02-22T18:47:36.752Z,102753.67
2019-02-22T18:50:08.173Z,102764.01
2019-02-22T18:52:36.708Z,102759.56
2019-02-22T18:55:09.661Z,102759.14
2019-02-22T18:57:38.381Z,102755.56
2019-02-22T19:00:16.653Z,102756.81
2019-02-22T19:02:45.141Z,102753.53
2019-02-22T19:05:13.737Z,102747.77
2019-02-22T19:07:42.514Z,102746.33
2019-02-22T19:10:13.553Z,102737.23
2019-02-22T19:12:42.215Z,102737.93
2019-02-22T19:15:12.602Z,102750.66
2019-02-22T19:17:41.544Z,102756.19
2019-02-22T19:20:15.734Z,102766.66
2019-02-22T19:22:43.769Z,102761.61
2019-02-22T19:25:12.531Z,102766.02
2019-02-22T19:27:41.146Z,102767.92
2019-02-22T19:30:23.877Z,102779.71
2019-02-22T19:32:52.487Z,102785.17
2019-02-22T19:35:21.449Z,102769.81
2019-02-22T19:37:50.015Z,102778.77
2019-02-22T19:40:21.443Z,102789.11
2019-02-22T19:42:50.490Z,102789.19
2019-02-22T19:45:19.607Z,102787.53
2019-02-22T19:47:48.126Z,102783.34
2019-02-22T19:50:17.356Z,102783.55
2019-02-22T19:52:45.949Z,102783.55
2019-02-22T19:55:17.032Z,102792.13
2019-02-22T19:57:45.650Z,102785.55
2019-02-22T20:00:16.323Z,102803.96
2019-02-22T20:02:44.882Z,102810.81
2019-02-22T20:05:14.598Z,102800.36
2019-02-22T20:07:43.160Z,102797.41
2019-02-22T20:10:17.818Z,102797.08
2019-02-22T20:12:44.633Z,102807.02
2019-02-22T20:15:17.511Z,102802.27
2019-02-22T20:17:53.815Z,102800.20
2019-02-22T20:20:18.029Z,102803.50
2019-02-22T20:22:46.581Z,102814.27
2019-02-22T20:25:15.103Z,102820.22
2019-02-22T20:27:43.747Z,102820.31
2019-02-22T20:30:14.540Z,102817.84
2019-02-22T20:32:44.161Z,102815.36
2019-02-22T20:35:14.973Z,102815.94
2019-02-22T20:37:51.878Z,102822.25
2019-02-22T20:40:13.986Z,102814.78
2019-02-22T20:42:43.829Z,102818.85
2019-02-22T20:45:13.285Z,102825.61
2019-02-22T20:47:41.889Z,102815.03
2019-02-22T20:50:12.223Z,102820.84
2019-02-22T20:52:40.693Z,102827.64
2019-02-22T20:55:12.524Z,102829.06
2019-02-22T20:57:41.037Z,102839.39
2019-02-22T21:00:18.137Z,102838.61
2019-02-22T21:02:46.770Z,102835.57
2019-02-22T21:05:15.386Z,102837.84
2019-02-22T21:07:43.971Z,102831.63
2019-02-22T21:10:19.730Z,102839.18
2019-02-22T21:12:48.511Z,102837.84
2019-02-22T21:15:17.205Z,102833.48
2019-02-22T21:17:45.757Z,102833.51
2019-02-22T21:20:19.083Z,102823.81
2019-02-22T21:22:47.633Z,102830.05
2019-02-22T21:25:16.250Z,102841.20
2019-02-22T21:27:44.732Z,102837.68
2019-02-22T21:30:15.401Z,102843.58
2019-02-22T21:32:44.150Z,102845.88
2019-02-22T21:35:12.941Z,102848.14
2019-02-22T21:37:42.845Z,102849.17
2019-02-22T21:40:12.730Z,102846.56
2019-02-22T21:42:41.239Z,102844.89
2019-02-22T21:45:12.796Z,102837.42
2019-02-22T21:47:41.342Z,102838.84
2019-02-22T21:50:12.382Z,102842.47
2019-02-22T21:52:40.979Z,102842.08
2019-02-22T21:55:16.148Z,102840.83
2019-02-22T21:57:44.651Z,102841.73
2019-02-22T22:00:18.632Z,102839.66
2019-02-22T22:02:47.286Z,102839.74
2019-02-22T22:05:15.826Z,102837.23
2019-02-22T22:07:44.549Z,102848.45
2019-02-22T22:10:13.072Z,102850.32
2019-02-22T22:12:41.768Z,102850.91
2019-02-22T22:15:11.994Z,102860.31
2019-02-22T22:17:40.655Z,102855.56
2019-02-22T22:20:10.255Z,102853.86
2019-02-22T22:22:39.256Z,102855.28
2019-02-22T22:25:10.814Z,102858.03
2019-02-22T22:27:39.269Z,102852.02
2019-02-22T22:30:12.662Z,102852.02
2019-02-22T22:32:41.388Z,102857.42
2019-02-22T22:35:11.708Z,102853.50
2019-02-22T22:37:40.251Z,102854.46
2019-02-22T22:40:10.600Z,102854.97
2019-02-22T22:42:39.195Z,102857.30
2019-02-22T22:45:12.756Z,102859.52
2019-02-22T22:47:41.241Z,102865.34
2019-02-22T22:50:17.155Z,102860.14
2019-02-22T22:52:45.605Z,102855.34
2019-02-22T22:55:14.166Z,102855.02
2019-02-22T22:57:42.697Z,102861.30
2019-02-22T23:00:40.182Z,102861.81
2019-02-22T23:03:08.813Z,102867.20
2019-02-22T23:05:37.341Z,102864.18
2019-02-22T23:08:06.332Z,102878.86
2019-02-22T23:10:34.944Z,102881.54
2019-02-22T23:13:03.461Z,102878.98
2019-02-22T23:15:32.259Z,102871.89
2019-02-22T23:18:00.794Z,102870.63
2019-02-22T23:20:29.380Z,102868.48
2019-02-22T23:22:57.962Z,102871.27
2019-02-22T23:25:26.415Z,102873.99
2019-02-22T23:27:55.049Z,102875.39
2019-02-22T23:30:23.614Z,102870.56
2019-02-22T23:32:52.163Z,102871.96
2019-02-22T23:35:21.286Z,102868.03
2019-02-22T23:37:49.806Z,102869.88
2019-02-22T23:40:18.292Z,102867.31
2019-02-22T23:42:46.756Z,102857.59
2019-02-22T23:45:15.312Z,102859.87
2019-02-22T23:47:43.853Z,102856.82
2019-02-22T23:50:12.331Z,102859.55
2019-02-22T23:52:40.812Z,102856.05
2019-02-22T23:55:09.294Z,102850.30
2019-02-22T23:57:37.752Z,102842.42
